Chanute, Kansas
Current Conditions -  °F | °C
As of 7:52 PM on Friday 24 Oct 2014 (Local Time) from KCNU Reporting Station
Clear Clear  
Wind Chill: 66°   Ceiling: Unl
Heat Index: 66°   Visibility: 10mi
Dew Point: 61°   Wind: 7mph
Humidity: 84%   Direction: 180°S
Pressure: 30.01"   Gusts: NA
Location:  37.68°N, 95.45°W
Report Text: KCNU 250052Z AUTO 18006KT 10SM CLR 19/16 A3001 RMK AO2 SLP156 T01890161
Loading
Personal Weather Stations






























Interactive Weather Map
Tropical Storm Tracking
New forecast layout! Learn more

10-Day Weather Forecast

Advertisements
Track Severe Weather on mobile